デンバー の空港の天気 - METARとTAF

デンバー国際空港 ( KDEN / DEN ) - アメリカ コロラド州デンバー
飛行場実況気象(Metar)
観測時間08/22 09:53 MDT (08/22 15:53 UTC)
風向・風速東 3m/s
視程10km以上
天気現象
少しの雲 雲底高度 240m
少しの雲 雲底高度 3350m
少しの雲 雲底高度 6710m
気温22.2℃
湿度55%
気圧1009.4hPa
METARKDEN 221553Z 10005KT 10SM FEW008 FEW110 FEW220 22/13 A3005 RMK AO2 SLP094 T02220128
過去の天気等 Google飛行場航空写真 Wunderground天気予報

過去48時間のMETAR

飛行場予報(TAF)
発表時間: 8/22 08:23 MDT (8/22 14:23 UTC)
予報対象時間: 22日8時 MDT ~ 23日12時 MDT
風向・風速西南西 2m/s
視程10km以上
全天の4割程度の雲 雲底高度 210m
全天の4割程度の雲 雲底高度 6710m
22日9時 MDT から
風向・風速不定 3m/s
視程10km以上
少しの雲 雲底高度 240m
少しの雲 雲底高度 6710m
22日11時 MDT から
風向・風速南南東 5m/s
視程10km以上
全天の4割程度の雲 雲底高度 3050m
全天の4割程度の雲 雲底高度 6710m
22日15時 MDT から
風向・風速東 4m/s
視程10km以上
天気現象周辺で雷
全天の4割程度の積乱雲 雲底高度 2440m
全天の8割程度の雲 雲底高度 6100m
22日16時 MDT ~ 22日18時 MDT に一時的に
風向・風速不定 10m/s 瞬間風速 18m/s
天気現象弱い雷雨
全天の8割程度の積乱雲 雲底高度 1830m
22日20時 MDT から
風向・風速南東 6m/s
視程10km以上
全天の4割程度の雲 雲底高度 3050m
全天の8割程度の雲 雲底高度 6710m
23日1時 MDT から
風向・風速南南西 5m/s
視程10km以上
全天の4割程度の雲 雲底高度 3960m
全天の8割程度の雲 雲底高度 6100m
KDEN 221423Z 2214/2318 25004KT P6SM SCT007 SCT220
FM221500 VRB05KT P6SM FEW008 FEW220
FM221700 16010KT P6SM SCT100 SCT220
FM222100 10008KT P6SM VCTS SCT080CB BKN200
TEMPO 2222/2224 VRB20G35KT -TSRA BKN060CB
FM230200 14012KT P6SM SCT100 BKN220
FM230700 21009KT P6SM SCT130 BKN200